CES2703 ZSPD-LTFM
Flight info
| Callsign | CES2703 |
|---|---|
| Flight time | N/A |
| Altitude | 36100 |
| Route | POMOK G330 PIMOL A593 DALIM W157 TUMLO/K0898S1160 W157 BEKDO/K0898S1130 W157 VYK G212 SOTMU/K0893S1160 B339 ASILA A575 UPREK DCT NUKTI B215 IRPEP/K0896S1220 B215 FKG A368 SARIN/K0900F400 N161 GASBI/N0492F400 N161 LEYLA N644 ADEKI DCT BADIR DCT LAGAS DCT SARPI UM10 HAKAN DCT GUMRU UT315 NUGBA |
| Aircraft | A359/H-SDE2E3GHIJ3J4J5LM1ORWXY/LB1D1 |
Departure
| Time | 2026-05-04 16:19 |
|---|---|
| Airport | Shanghai Pudong International Airport (ZSPD) |
Arrival
| Time | N/A |
|---|---|
| Airport | İstanbul Airport (LTFM) |
| Time | Latitude | Longitude | Altitude | Speed | Heading |
|---|---|---|---|---|---|
| 2026-05-04 15:45 | 31.14739 | 121.79797 | 29 ft | 0 kts | 72° |
| 2026-05-04 15:58 | 31.14739 | 121.79795 | 29 ft | 1 kts | 72° |
| 2026-05-04 15:59 | 31.14734 | 121.79777 | 28 ft | 3 kts | 72° |
| 2026-05-04 15:59 | 31.14728 | 121.79755 | 28 ft | 3 kts | 72° |
| 2026-05-04 15:59 | 31.14722 | 121.79732 | 27 ft | 3 kts | 72° |
| 2026-05-04 15:59 | 31.14718 | 121.79716 | 27 ft | 3 kts | 69° |
| 2026-05-04 16:00 | 31.14709 | 121.79698 | 29 ft | 3 kts | 26° |
| 2026-05-04 16:00 | 31.14692 | 121.79695 | 28 ft | 3 kts | 344° |
| 2026-05-04 16:00 | 31.14675 | 121.79702 | 28 ft | 2 kts | 341° |
| 2026-05-04 16:00 | 31.14672 | 121.79703 | 28 ft | 0 kts | 342° |
| 2026-05-04 16:05 | 31.14693 | 121.79695 | 28 ft | 9 kts | 342° |
| 2026-05-04 16:05 | 31.14926 | 121.79606 | 29 ft | 24 kts | 336° |
| 2026-05-04 16:06 | 31.15011 | 121.79535 | 29 ft | 0 kts | 316° |
| 2026-05-04 16:08 | 31.15013 | 121.79533 | 29 ft | 1 kts | 316° |
| 2026-05-04 16:09 | 31.15037 | 121.79507 | 29 ft | 6 kts | 318° |
| 2026-05-04 16:10 | 31.15165 | 121.79414 | 29 ft | 8 kts | 322° |
| 2026-05-04 16:11 | 31.15167 | 121.79412 | 29 ft | 0 kts | 322° |
| 2026-05-04 16:12 | 31.15172 | 121.79400 | 29 ft | 1 kts | 298° |
| 2026-05-04 16:12 | 31.15241 | 121.79271 | 29 ft | 15 kts | 335° |
| 2026-05-04 16:13 | 31.15501 | 121.79163 | 29 ft | 25 kts | 342° |
| 2026-05-04 16:13 | 31.15895 | 121.79013 | 29 ft | 34 kts | 342° |
| 2026-05-04 16:14 | 31.16162 | 121.78913 | 29 ft | 1 kts | 333° |
| 2026-05-04 16:14 | 31.16170 | 121.78847 | 29 ft | 9 kts | 265° |
| 2026-05-04 16:15 | 31.16143 | 121.78738 | 29 ft | 0 kts | 249° |
| 2026-05-04 16:16 | 31.16113 | 121.78651 | 29 ft | 9 kts | 240° |
| 2026-05-04 16:17 | 31.15983 | 121.78652 | 28 ft | 0 kts | 162° |
| 2026-05-04 16:18 | 31.14522 | 121.79206 | 31 ft | 151 kts | 162° |
| 2026-05-04 16:18 | 31.13466 | 121.79595 | 421 ft | 157 kts | 164° |
| 2026-05-04 16:19 | 31.10223 | 121.80702 | 1690 ft | 188 kts | 166° |
| 2026-05-04 16:19 | 31.07576 | 121.81609 | 2443 ft | 206 kts | 166° |
| 2026-05-04 16:20 | 31.03154 | 121.83088 | 3381 ft | 243 kts | 169° |
| 2026-05-04 16:20 | 30.99853 | 121.82427 | 4199 ft | 255 kts | 217° |
| 2026-05-04 16:21 | 30.97479 | 121.76916 | 5821 ft | 265 kts | 254° |
| 2026-05-04 16:22 | 30.96399 | 121.72723 | 6920 ft | 274 kts | 260° |
| 2026-05-04 16:22 | 30.97169 | 121.66211 | 8769 ft | 277 kts | 284° |
| 2026-05-04 16:23 | 30.98432 | 121.59510 | 10414 ft | 295 kts | 283° |
| 2026-05-04 16:24 | 31.00329 | 121.49229 | 11462 ft | 353 kts | 282° |
| 2026-05-04 16:25 | 31.01383 | 121.43521 | 12225 ft | 369 kts | 282° |
| 2026-05-04 16:26 | 31.03564 | 121.31616 | 14258 ft | 381 kts | 282° |
| 2026-05-04 16:26 | 31.05221 | 121.22541 | 15765 ft | 385 kts | 281° |
| 2026-05-04 16:27 | 31.06564 | 121.16483 | 16748 ft | 390 kts | 294° |
| 2026-05-04 16:28 | 31.13147 | 121.11156 | 18168 ft | 415 kts | 350° |
| 2026-05-04 16:28 | 31.21920 | 121.11488 | 19394 ft | 426 kts | 356° |
| 2026-05-04 16:29 | 31.33874 | 121.11058 | 21052 ft | 434 kts | 354° |
| 2026-05-04 16:30 | 31.43050 | 121.11464 | 22351 ft | 443 kts | 356° |
| 2026-05-04 16:31 | 31.48856 | 121.09671 | 23257 ft | 436 kts | 332° |
| 2026-05-04 16:31 | 31.57190 | 121.05206 | 24457 ft | 444 kts | 332° |
| 2026-05-04 16:32 | 31.65693 | 121.00675 | 25613 ft | 451 kts | 331° |
| 2026-05-04 16:33 | 31.71441 | 120.97610 | 26437 ft | 453 kts | 330° |
| 2026-05-04 16:33 | 31.77165 | 120.94553 | 27134 ft | 458 kts | 329° |
| 2026-05-04 16:34 | 31.82998 | 120.91433 | 27856 ft | 463 kts | 329° |
| 2026-05-04 16:34 | 31.85935 | 120.89862 | 28211 ft | 465 kts | 329° |
| 2026-05-04 16:35 | 31.94815 | 120.85103 | 29223 ft | 471 kts | 328° |
| 2026-05-04 16:35 | 32.03821 | 120.80266 | 29940 ft | 481 kts | 329° |
| 2026-05-04 16:36 | 32.06869 | 120.78624 | 30309 ft | 480 kts | 329° |
| 2026-05-04 16:36 | 32.12916 | 120.75368 | 31094 ft | 476 kts | 329° |
| 2026-05-04 16:37 | 32.18904 | 120.72139 | 31781 ft | 473 kts | 329° |
| 2026-05-04 16:37 | 32.21902 | 120.70530 | 32123 ft | 472 kts | 329° |
| 2026-05-04 16:37 | 32.27824 | 120.67332 | 32632 ft | 472 kts | 329° |
| 2026-05-04 16:38 | 32.33782 | 120.64086 | 33280 ft | 469 kts | 329° |
| 2026-05-04 16:39 | 32.42660 | 120.59363 | 34212 ft | 465 kts | 329° |
| 2026-05-04 16:39 | 32.48534 | 120.56285 | 34582 ft | 465 kts | 329° |
| 2026-05-04 16:40 | 32.54450 | 120.53194 | 34951 ft | 465 kts | 329° |
| 2026-05-04 16:40 | 32.60378 | 120.50106 | 35294 ft | 465 kts | 329° |
| 2026-05-04 16:41 | 32.66305 | 120.47025 | 35635 ft | 465 kts | 329° |
| 2026-05-04 16:41 | 32.75160 | 120.42436 | 36105 ft | 465 kts | 329° |
| 2026-05-04 16:43 | 32.90074 | 120.34443 | 36160 ft | 472 kts | 329° |
| 2026-05-04 16:43 | 32.99027 | 120.29539 | 36161 ft | 472 kts | 329° |
| 2026-05-04 16:45 | 33.16859 | 120.19628 | 36158 ft | 473 kts | 329° |
| 2026-05-04 16:46 | 33.31690 | 120.11275 | 36161 ft | 473 kts | 329° |
| 2026-05-04 16:47 | 33.43504 | 120.04387 | 36151 ft | 473 kts | 329° |
| 2026-05-04 16:48 | 33.55281 | 119.97451 | 36141 ft | 473 kts | 329° |
| 2026-05-04 16:49 | 33.67040 | 119.90442 | 36146 ft | 472 kts | 329° |
| 2026-05-04 16:50 | 33.78749 | 119.83373 | 36145 ft | 472 kts | 329° |
| 2026-05-04 16:51 | 33.87532 | 119.78019 | 36157 ft | 472 kts | 329° |
| 2026-05-04 16:52 | 33.99178 | 119.70862 | 36133 ft | 470 kts | 329° |
| 2026-05-04 16:53 | 34.07866 | 119.65513 | 36136 ft | 470 kts | 329° |
| 2026-05-04 16:54 | 34.19506 | 119.58323 | 36135 ft | 469 kts | 329° |
| 2026-05-04 16:55 | 34.36842 | 119.47527 | 36140 ft | 468 kts | 329° |
| 2026-05-04 16:56 | 34.51292 | 119.38432 | 36131 ft | 468 kts | 329° |
| 2026-05-04 16:57 | 34.59915 | 119.32976 | 36123 ft | 468 kts | 328° |
| 2026-05-04 16:58 | 34.71472 | 119.25637 | 36127 ft | 468 kts | 329° |
| 2026-05-04 17:00 | 34.88688 | 119.14456 | 36120 ft | 468 kts | 328° |
| 2026-05-04 17:01 | 35.02990 | 119.05086 | 36122 ft | 468 kts | 328° |
| 2026-05-04 17:02 | 35.14429 | 118.97507 | 36118 ft | 467 kts | 327° |
| 2026-05-04 17:02 | 35.19552 | 118.92740 | 36122 ft | 462 kts | 313° |
| 2026-05-04 17:03 | 35.21772 | 118.89966 | 36120 ft | 461 kts | 311° |
| 2026-05-04 17:03 | 35.28168 | 118.81178 | 36119 ft | 461 kts | 309° |
| 2026-05-04 17:04 | 35.36658 | 118.69389 | 36114 ft | 461 kts | 310° |
| 2026-05-04 17:05 | 35.45149 | 118.57671 | 36115 ft | 462 kts | 310° |
| 2026-05-04 17:06 | 35.51538 | 118.48825 | 36114 ft | 462 kts | 310° |
| 2026-05-04 17:07 | 35.57211 | 118.40950 | 36114 ft | 462 kts | 310° |
| 2026-05-04 17:07 | 35.62149 | 118.34079 | 36114 ft | 462 kts | 310° |
| 2026-05-04 17:08 | 35.68526 | 118.25187 | 36111 ft | 462 kts | 310° |
| 2026-05-04 17:09 | 35.72775 | 118.19248 | 36112 ft | 462 kts | 310° |
| 2026-05-04 17:09 | 35.76999 | 118.13336 | 36104 ft | 462 kts | 310° |
| 2026-05-04 17:10 | 35.87599 | 117.98450 | 36093 ft | 462 kts | 310° |
| 2026-05-04 17:11 | 35.91837 | 117.92480 | 36093 ft | 462 kts | 310° |
| 2026-05-04 17:12 | 35.98151 | 117.83565 | 36097 ft | 462 kts | 310° |
| 2026-05-04 17:13 | 36.08704 | 117.68616 | 36082 ft | 462 kts | 310° |
| 2026-05-04 17:14 | 36.17105 | 117.56666 | 36076 ft | 462 kts | 310° |
| 2026-05-04 17:15 | 36.23413 | 117.47664 | 36074 ft | 462 kts | 310° |
| 2026-05-04 17:16 | 36.31781 | 117.35687 | 36069 ft | 460 kts | 310° |
| 2026-05-04 17:17 | 36.40284 | 117.23832 | 36064 ft | 461 kts | 317° |
| 2026-05-04 17:17 | 36.48437 | 117.17643 | 36047 ft | 464 kts | 334° |
| 2026-05-04 17:18 | 36.51415 | 117.16071 | 36039 ft | 465 kts | 335° |
| 2026-05-04 17:19 | 36.63365 | 117.10075 | 36022 ft | 463 kts | 335° |
| 2026-05-04 17:20 | 36.75232 | 117.03894 | 36014 ft | 463 kts | 335° |
| 2026-05-04 17:20 | 36.84101 | 116.99240 | 36010 ft | 463 kts | 335° |
| 2026-05-04 17:21 | 36.95917 | 116.93030 | 35999 ft | 462 kts | 335° |
| 2026-05-04 17:22 | 37.01837 | 116.89912 | 35995 ft | 462 kts | 335° |
| 2026-05-04 17:23 | 37.13668 | 116.83660 | 35992 ft | 461 kts | 336° |
| 2026-05-04 17:24 | 37.22588 | 116.79134 | 35995 ft | 462 kts | 341° |
| 2026-05-04 17:25 | 37.34839 | 116.74437 | 35984 ft | 462 kts | 342° |
| 2026-05-04 17:26 | 37.47120 | 116.69803 | 35984 ft | 461 kts | 342° |
| 2026-05-04 17:27 | 37.62430 | 116.63983 | 35981 ft | 461 kts | 342° |
| 2026-05-04 17:28 | 37.74707 | 116.59298 | 35973 ft | 461 kts | 342° |
| 2026-05-04 17:29 | 37.93071 | 116.52260 | 35973 ft | 460 kts | 342° |
| 2026-05-04 17:30 | 38.01539 | 116.46833 | 35963 ft | 459 kts | 325° |
| 2026-05-04 17:31 | 38.06746 | 116.42127 | 35964 ft | 460 kts | 324° |
| 2026-05-04 17:32 | 38.19746 | 116.30346 | 35957 ft | 459 kts | 330° |
| 2026-05-04 17:33 | 38.28798 | 116.26815 | 35963 ft | 461 kts | 355° |
| 2026-05-04 17:33 | 38.32007 | 116.26878 | 35957 ft | 463 kts | 4° |
| 2026-05-04 17:34 | 38.43549 | 116.30354 | 35956 ft | 467 kts | 13° |
| 2026-05-04 17:35 | 38.60177 | 116.36213 | 35949 ft | 465 kts | 13° |
| 2026-05-04 17:36 | 38.66419 | 116.38376 | 35950 ft | 465 kts | 13° |
| 2026-05-04 17:36 | 38.72648 | 116.40564 | 35949 ft | 463 kts | 13° |
| 2026-05-04 17:37 | 38.77807 | 116.42381 | 35949 ft | 463 kts | 13° |
| 2026-05-04 17:37 | 38.85027 | 116.44928 | 35943 ft | 463 kts | 13° |
| 2026-05-04 17:38 | 38.91225 | 116.47118 | 35939 ft | 462 kts | 13° |
| 2026-05-04 17:38 | 38.97427 | 116.49314 | 35943 ft | 461 kts | 13° |
| 2026-05-04 17:39 | 39.06662 | 116.52590 | 35925 ft | 461 kts | 13° |
| 2026-05-04 17:39 | 39.11803 | 116.54418 | 35941 ft | 460 kts | 13° |
| 2026-05-04 17:40 | 39.19001 | 116.56983 | 35937 ft | 459 kts | 13° |
| 2026-05-04 17:40 | 39.24087 | 116.59001 | 35938 ft | 461 kts | 17° |
| 2026-05-04 17:41 | 39.30089 | 116.61907 | 35923 ft | 461 kts | 18° |
| 2026-05-04 17:41 | 39.36085 | 116.64833 | 35928 ft | 460 kts | 18° |
| 2026-05-04 17:42 | 39.42060 | 116.67661 | 35930 ft | 460 kts | 17° |
| 2026-05-04 17:42 | 39.48076 | 116.70471 | 35928 ft | 459 kts | 17° |
| 2026-05-04 17:43 | 39.54085 | 116.73276 | 35923 ft | 459 kts | 17° |
| 2026-05-04 17:43 | 39.60088 | 116.76088 | 35924 ft | 459 kts | 17° |
| 2026-05-04 17:44 | 39.67057 | 116.79362 | 35926 ft | 458 kts | 17° |
| 2026-05-04 17:44 | 39.73046 | 116.82182 | 35924 ft | 458 kts | 17° |
| 2026-05-04 17:45 | 39.78104 | 116.84151 | 35926 ft | 455 kts | 8° |
| 2026-05-04 17:45 | 39.84369 | 116.84496 | 35924 ft | 450 kts | 352° |
| 2026-05-04 17:46 | 39.90578 | 116.83404 | 35921 ft | 451 kts | 350° |
| 2026-05-04 17:46 | 39.96735 | 116.82146 | 35924 ft | 451 kts | 350° |
| 2026-05-04 17:47 | 40.02924 | 116.80877 | 35918 ft | 451 kts | 350° |
| 2026-05-04 17:47 | 40.09122 | 116.79628 | 35925 ft | 451 kts | 350° |
| 2026-05-04 17:48 | 40.15334 | 116.78384 | 35924 ft | 451 kts | 350° |
| 2026-05-04 17:48 | 40.21529 | 116.77143 | 35928 ft | 451 kts | 350° |
| 2026-05-04 17:49 | 40.27678 | 116.75907 | 35923 ft | 450 kts | 350° |
| 2026-05-04 17:49 | 40.33830 | 116.74419 | 35923 ft | 449 kts | 343° |
| 2026-05-04 17:50 | 40.39508 | 116.72236 | 35924 ft | 449 kts | 342° |
| 2026-05-04 17:50 | 40.45485 | 116.69821 | 35926 ft | 449 kts | 342° |
| 2026-05-04 17:51 | 40.51462 | 116.67386 | 35929 ft | 449 kts | 342° |
| 2026-05-04 17:51 | 40.56424 | 116.65368 | 35931 ft | 449 kts | 342° |